Time;durP1;ratioP1;P1;durP2;ratioP2;P2;SDS_P1;SDS_P2;PMS_P1;PMS_P2;Temp;Humidity;BMP_temperature;BMP_pressure;BME280_temperature;BME280_humidity;BME280_pressure;Samples;Min_cycle;Max_cycle;Signal;HPM_P1;HPM_P2
2022/01/15 00:00:37;;;;;;;8.25;3.27;;;;;;;4.04;77.52;99688.22;1758382;82;21103;-62
2022/01/15 00:03:09;;;;;;;9.23;3.58;;;;;;;4.03;77.56;99689.09;1757825;80;21179;-63
2022/01/15 00:05:38;;;;;;;7.75;3.42;;;;;;;4.05;77.57;99695.57;1759664;81;21097;-63
2022/01/15 00:08:07;;;;;;;6.62;3.02;;;;;;;4.04;77.53;99688.67;1734632;82;21579;-64
2022/01/15 00:10:38;;;;;;;7.22;3.67;;;;;;;4.03;77.55;99681.73;1759757;81;21537;-63
2022/01/15 00:13:29;;;;;;;6.87;2.27;;;;;;;4.01;77.58;99683.08;1782101;80;21193;-61
2022/01/15 00:16:07;;;;;;;7.55;3.47;;;;;;;4.02;77.60;99683.50;1779690;80;21213;-63
2022/01/15 00:18:58;;;;;;;9.83;3.87;;;;;;;4.00;77.56;99658.37;1765986;81;21626;-65
2022/01/15 00:21:16;;;;;;;9.53;3.47;;;;;;;3.99;77.56;99654.08;1767969;80;21050;-65
2022/01/15 00:23:44;;;;;;;9.08;4.28;;;;;;;3.97;77.54;99642.40;1785028;79;21047;-63
2022/01/15 00:26:13;;;;;;;10.28;4.15;;;;;;;3.95;77.57;99659.83;1779962;80;21133;-63
2022/01/15 00:28:42;;;;;;;5.95;2.90;;;;;;;3.94;77.59;99645.55;1766128;81;21083;-63
2022/01/15 00:31:11;;;;;;;9.85;3.90;;;;;;;3.92;77.60;99658.61;1766301;81;21067;-63
2022/01/15 00:33:39;;;;;;;7.60;3.50;;;;;;;3.92;77.55;99645.58;1766304;81;21110;-65
2022/01/15 00:36:08;;;;;;;12.28;4.62;;;;;;;3.91;77.55;99649.53;1766205;81;21193;-60
2022/01/15 00:38:37;;;;;;;11.83;3.80;;;;;;;3.89;77.54;99659.14;1766433;81;21516;-60
2022/01/15 00:41:05;;;;;;;5.92;2.50;;;;;;;3.89;77.55;99674.77;1768292;80;21283;-61
2022/01/15 00:43:36;;;;;;;8.88;3.47;;;;;;;3.87;77.55;99668.30;1780918;80;21067;-60
2022/01/15 00:46:10;;;;;;;9.00;4.35;;;;;;;3.85;77.53;99659.25;1778604;80;21562;-68
2022/01/15 00:48:39;;;;;;;7.40;3.55;;;;;;;3.79;77.45;99660.70;1776145;81;21204;-64
2022/01/15 00:51:08;;;;;;;10.18;4.42;;;;;;;3.76;77.54;99662.12;1773977;81;21059;-64
2022/01/15 00:53:36;;;;;;;11.73;4.17;;;;;;;3.74;77.49;99663.88;1776881;80;21050;-65
2022/01/15 00:56:05;;;;;;;10.68;4.97;;;;;;;3.73;77.48;99651.78;1785460;80;21153;-65
2022/01/15 00:58:45;;;;;;;7.75;4.22;;;;;;;3.71;77.52;99648.38;1785468;79;21129;-67
2022/01/15 01:01:16;;;;;;;12.98;5.20;;;;;;;3.71;77.32;99649.67;1795847;78;21084;-67
2022/01/15 01:03:45;;;;;;;10.18;3.80;;;;;;;3.66;77.33;99625.52;1795946;80;21143;-66
2022/01/15 01:06:13;;;;;;;9.75;3.77;;;;;;;3.67;77.34;99633.70;1795907;80;21143;-66
2022/01/15 01:08:42;;;;;;;10.30;3.70;;;;;;;3.66;77.36;99632.02;1774976;80;21513;-65
2022/01/15 01:11:23;;;;;;;4.93;2.93;;;;;;;3.65;77.28;99630.30;1780515;79;21045;-66
2022/01/15 01:24:28;;;;;;;11.35;4.30;;;;;;;3.67;77.02;99616.78;1779337;80;21484;-63
2022/01/15 01:32:06;;;;;;;9.55;4.12;;;;;;;3.64;76.75;99613.83;1779442;80;21583;-63
2022/01/15 01:34:34;;;;;;;12.75;4.10;;;;;;;3.67;76.68;99619.39;1779083;80;21195;-60
2022/01/15 01:37:19;;;;;;;9.35;3.80;;;;;;;3.68;76.25;99618.50;1779258;80;21137;-65
2022/01/15 01:39:56;;;;;;;7.83;4.12;;;;;;;3.66;76.08;99612.49;1779128;80;21074;-65
2022/01/15 01:45:12;;;;;;;15.03;4.35;;;;;;;3.66;76.22;99596.87;1779218;81;21082;-63
2022/01/15 01:47:41;;;;;;;7.15;3.25;;;;;;;3.65;75.99;99617.28;1777824;80;21028;-62
2022/01/15 01:50:21;;;;;;;9.85;4.00;;;;;;;3.65;75.95;99621.19;1773140;81;21132;-61
2022/01/15 01:52:53;;;;;;;8.00;3.35;;;;;;;3.63;75.83;99622.56;1772428;81;21221;-62
2022/01/15 01:55:24;;;;;;;6.72;3.00;;;;;;;3.60;75.80;99629.14;1773075;81;21200;-61
2022/01/15 01:57:55;;;;;;;11.35;3.90;;;;;;;3.61;75.87;99620.87;1773103;81;21134;-61
2022/01/15 02:00:25;;;;;;;6.35;2.92;;;;;;;3.57;75.83;99627.07;1773087;81;21087;-61
2022/01/15 02:02:54;;;;;;;4.67;1.52;;;;;;;3.51;75.89;99630.70;1773115;81;21059;-62
2022/01/15 02:05:24;;;;;;;11.57;3.10;;;;;;;3.48;75.91;99613.41;1773026;81;21555;-63
2022/01/15 02:07:53;;;;;;;4.47;2.37;;;;;;;3.44;75.91;99635.67;1772949;81;21616;-62
2022/01/15 02:10:22;;;;;;;8.08;2.98;;;;;;;3.35;75.94;99636.77;1773056;81;21541;-62
2022/01/15 02:12:52;;;;;;;9.33;2.27;;;;;;;3.29;75.98;99640.84;1772961;79;21174;-61
2022/01/15 02:15:23;;;;;;;7.03;2.22;;;;;;;3.24;75.65;99640.10;1773100;81;21105;-62
2022/01/15 02:17:52;;;;;;;3.87;1.40;;;;;;;3.16;75.51;99665.48;1772986;81;21106;-62
2022/01/15 02:25:52;;;;;;;5.72;2.02;;;;;;;3.06;75.41;99670.91;1773029;81;21135;-62
2022/01/15 02:28:23;;;;;;;5.33;2.00;;;;;;;3.02;75.45;99682.27;1772282;81;21142;-62
2022/01/15 02:30:57;;;;;;;4.92;1.32;;;;;;;2.98;75.38;99700.59;1772974;81;21078;-63
2022/01/15 02:33:27;;;;;;;2.30;0.85;;;;;;;2.92;75.00;99708.11;1773029;81;21517;-63
2022/01/15 02:35:56;;;;;;;4.62;0.93;;;;;;;2.88;74.58;99706.48;1773033;81;21153;-64
2022/01/15 02:38:26;;;;;;;2.12;0.62;;;;;;;2.83;73.97;99718.73;1772987;81;21098;-62
2022/01/15 02:40:54;;;;;;;0.30;0.30;;;;;;;2.76;73.57;99728.41;1772964;81;21541;-62
2022/01/15 02:43:33;;;;;;;4.80;1.50;;;;;;;2.74;73.66;99737.14;1772985;81;21141;-62
2022/01/15 02:48:00;;;;;;;2.65;0.75;;;;;;;2.69;73.80;99745.91;1772925;81;21900;-62
2022/01/15 02:48:33;;;;;;;3.75;0.65;;;;;;;2.62;73.74;99760.34;1750484;81;21063;-64
2022/01/15 02:51:01;;;;;;;0.62;0.50;;;;;;;2.56;73.70;99744.44;1772988;80;21114;-65
2022/01/15 02:53:30;;;;;;;2.85;0.70;;;;;;;2.50;73.84;99767.52;1772743;81;21066;-65
2022/01/15 02:55:59;;;;;;;2.02;0.80;;;;;;;2.45;73.85;99778.48;1773194;80;21543;-63
2022/01/15 02:58:27;;;;;;;3.83;0.80;;;;;;;2.40;73.94;99771.64;1772945;81;21127;-63
2022/01/15 03:00:56;;;;;;;1.72;0.60;;;;;;;2.34;74.04;99776.98;1773000;81;21585;-62
2022/01/15 03:03:25;;;;;;;3.62;0.70;;;;;;;2.27;73.50;99786.21;1773002;81;21557;-62
2022/01/15 03:05:53;;;;;;;1.40;0.70;;;;;;;2.19;73.65;99780.30;1772945;81;21564;-61
2022/01/15 03:08:22;;;;;;;1.35;0.60;;;;;;;2.11;73.46;99787.40;1773096;81;21643;-66
2022/01/15 03:10:51;;;;;;;2.47;0.55;;;;;;;2.03;73.57;99793.16;1773006;81;21263;-66
2022/01/15 03:13:19;;;;;;;2.90;0.90;;;;;;;1.95;73.31;99788.13;1772957;80;21193;-64
2022/01/15 03:15:48;;;;;;;3.77;0.60;;;;;;;1.87;73.42;99797.36;1773042;81;21094;-64
2022/01/15 03:18:17;;;;;;;5.15;0.80;;;;;;;1.79;73.49;99800.55;1772962;81;21106;-64
2022/01/15 03:20:46;;;;;;;1.47;0.60;;;;;;;1.74;73.54;99812.30;1773006;81;21668;-65
2022/01/15 03:23:15;;;;;;;2.37;0.98;;;;;;;1.71;73.48;99814.09;1772945;81;21144;-63
2022/01/15 03:25:44;;;;;;;4.83;1.52;;;;;;;1.68;73.60;99820.66;1773010;81;21548;-62
2022/01/15 03:28:13;;;;;;;2.77;0.98;;;;;;;1.64;73.68;99823.73;1773068;81;21026;-62
2022/01/15 03:30:42;;;;;;;5.53;0.60;;;;;;;1.62;73.75;99838.91;1772971;81;21581;-65
2022/01/15 03:33:11;;;;;;;2.08;0.50;;;;;;;1.58;73.80;99838.55;1772887;81;21698;-62
2022/01/15 03:35:40;;;;;;;3.98;0.47;;;;;;;1.56;73.69;99848.09;1772959;81;21513;-64
2022/01/15 03:38:09;;;;;;;3.02;0.60;;;;;;;1.52;73.79;99844.24;1772972;80;21090;-66
2022/01/15 03:40:38;;;;;;;2.87;0.72;;;;;;;1.51;73.53;99841.25;1772977;81;21545;-66
2022/01/15 03:43:07;;;;;;;1.22;0.50;;;;;;;1.51;73.56;99849.45;1773019;81;21588;-63
2022/01/15 03:45:36;;;;;;;1.47;0.72;;;;;;;1.47;73.58;99851.23;1773071;81;21550;-64
2022/01/15 03:48:05;;;;;;;2.55;0.82;;;;;;;1.48;73.85;99856.01;1772925;80;21556;-68
2022/01/15 03:50:34;;;;;;;2.83;0.80;;;;;;;1.51;73.95;99869.80;1773128;81;21112;-67
2022/01/15 03:53:03;;;;;;;1.57;0.78;;;;;;;1.58;74.20;99869.23;1773004;81;21079;-64
2022/01/15 03:55:32;;;;;;;2.60;0.70;;;;;;;1.65;74.33;99859.17;1773066;81;21164;-64
2022/01/15 03:58:00;;;;;;;1.45;0.88;;;;;;;1.70;74.29;99866.90;1772876;81;21201;-64
2022/01/15 04:00:30;;;;;;;5.67;1.32;;;;;;;1.71;74.12;99858.21;1772951;81;21542;-63
2022/01/15 04:02:59;;;;;;;2.70;1.17;;;;;;;1.66;73.96;99854.41;1772955;81;21091;-64
2022/01/15 04:05:27;;;;;;;4.08;1.70;;;;;;;1.61;73.88;99848.88;1773130;81;21647;-63
2022/01/15 04:07:56;;;;;;;5.30;1.10;;;;;;;1.56;73.93;99862.37;1773151;81;21087;-69
2022/01/15 04:10:25;;;;;;;2.02;0.88;;;;;;;1.48;73.93;99864.64;1773004;81;21083;-68
2022/01/15 04:12:53;;;;;;;2.60;0.90;;;;;;;1.42;74.05;99870.35;1772984;81;21553;-69
2022/01/15 04:15:22;;;;;;;1.75;0.90;;;;;;;1.37;74.13;99866.55;1784448;80;21148;-69
2022/01/15 04:17:51;;;;;;;4.03;1.20;;;;;;;1.31;74.19;99862.73;1789629;80;21034;-67
2022/01/15 04:20:23;;;;;;;4.92;1.30;;;;;;;1.28;74.22;99869.28;1789772;80;21025;-68
2022/01/15 04:22:53;;;;;;;3.72;1.00;;;;;;;1.24;74.28;99870.22;1789551;80;21060;-63
2022/01/15 04:25:23;;;;;;;1.37;0.75;;;;;;;1.22;74.28;99873.24;1789451;80;21187;-63
2022/01/15 04:27:56;;;;;;;3.77;1.05;;;;;;;1.18;74.32;99874.17;1789648;80;21096;-63
2022/01/15 04:30:24;;;;;;;3.35;0.70;;;;;;;1.17;74.42;99880.26;1789224;80;21125;-62
2022/01/15 04:32:53;;;;;;;1.42;0.80;;;;;;;1.17;74.49;99891.48;1789499;80;21058;-61
2022/01/15 04:35:22;;;;;;;4.15;1.55;;;;;;;1.22;74.52;99893.98;1789524;80;21579;-67
2022/01/15 04:37:56;;;;;;;6.35;1.67;;;;;;;1.28;74.52;99887.44;1789360;80;21062;-65
2022/01/15 04:40:22;;;;;;;2.22;1.30;;;;;;;1.31;74.43;99887.37;1788694;80;21109;-65
2022/01/15 04:42:50;;;;;;;3.00;1.17;;;;;;;1.31;74.41;99883.06;1789377;80;21074;-65
2022/01/15 04:45:19;;;;;;;3.27;1.10;;;;;;;1.33;74.30;99892.13;1789343;80;21101;-63
2022/01/15 04:47:48;;;;;;;3.30;0.82;;;;;;;1.32;74.23;99899.02;1789318;80;21496;-64
2022/01/15 04:50:18;;;;;;;1.47;0.70;;;;;;;1.33;74.23;99902.05;1789332;80;21081;-64
2022/01/15 04:52:47;;;;;;;2.75;0.80;;;;;;;1.39;74.22;99905.44;1789425;80;21059;-63
2022/01/15 04:55:16;;;;;;;2.67;0.80;;;;;;;1.40;74.24;99913.17;1789520;80;21555;-62
2022/01/15 04:57:44;;;;;;;2.35;1.00;;;;;;;1.45;74.26;99915.27;1789351;80;21081;-63
2022/01/15 05:00:16;;;;;;;5.62;1.12;;;;;;;1.53;74.26;99917.33;1789311;80;21078;-63
2022/01/15 05:02:45;;;;;;;2.85;0.90;;;;;;;1.59;74.22;99916.37;1789223;80;21034;-63
2022/01/15 05:05:14;;;;;;;3.52;0.80;;;;;;;1.63;74.17;99920.62;1789415;80;21433;-63
2022/01/15 05:07:43;;;;;;;3.60;1.22;;;;;;;1.66;74.03;99923.19;1789423;80;21109;-63
2022/01/15 05:10:16;;;;;;;3.40;1.22;;;;;;;1.68;73.91;99924.02;1789326;80;21191;-65
2022/01/15 05:12:46;;;;;;;5.25;1.05;;;;;;;1.70;73.87;99919.65;1789359;80;21148;-63
2022/01/15 05:15:16;;;;;;;3.77;0.93;;;;;;;1.73;73.82;99918.73;1783788;80;21055;-64
2022/01/15 05:17:46;;;;;;;1.75;0.70;;;;;;;1.75;73.35;99923.45;1772945;81;21158;-62
2022/01/15 05:20:17;;;;;;;7.08;1.10;;;;;;;1.75;73.64;99927.34;1772800;81;21126;-64
2022/01/15 05:22:48;;;;;;;6.53;0.80;;;;;;;1.76;73.40;99916.09;1772826;81;21055;-64
2022/01/15 05:25:18;;;;;;;5.10;1.00;;;;;;;1.78;73.37;99927.31;1772784;81;21059;-64
2022/01/15 05:27:48;;;;;;;3.42;0.90;;;;;;;1.80;73.43;99925.54;1772699;81;21129;-66
2022/01/15 05:30:17;;;;;;;2.55;0.62;;;;;;;1.83;73.45;99937.19;1772830;81;21469;-63
2022/01/15 05:32:46;;;;;;;3.00;0.88;;;;;;;1.85;73.37;99940.61;1772818;81;21078;-63
2022/01/15 05:35:14;;;;;;;3.55;1.10;;;;;;;1.90;73.31;99952.20;1772944;80;21042;-65
2022/01/15 05:37:43;;;;;;;3.12;0.72;;;;;;;1.92;73.29;99950.47;1772867;80;21137;-63
2022/01/15 05:40:13;;;;;;;6.80;1.47;;;;;;;1.96;73.32;99955.17;1772948;81;21231;-61
2022/01/15 05:42:42;;;;;;;9.23;1.65;;;;;;;1.97;72.94;99961.61;1772900;81;21246;-62
2022/01/15 05:45:12;;;;;;;5.28;1.37;;;;;;;2.00;73.08;99964.61;1772961;80;21157;-61
2022/01/15 05:47:40;;;;;;;2.37;1.15;;;;;;;2.02;72.99;99972.78;1772895;81;21113;-63
2022/01/15 05:50:10;;;;;;;4.78;1.22;;;;;;;2.05;72.98;99971.45;1772908;81;21152;-64
2022/01/15 05:52:39;;;;;;;3.92;0.98;;;;;;;2.06;72.61;99974.89;1772805;81;21097;-64
2022/01/15 05:55:08;;;;;;;6.03;1.95;;;;;;;2.06;72.59;99985.28;1772896;81;21529;-65
2022/01/15 05:57:37;;;;;;;4.92;1.77;;;;;;;2.08;72.65;99996.05;1772968;81;21105;-63
2022/01/15 06:00:09;;;;;;;6.47;1.20;;;;;;;2.11;72.62;99995.16;1772897;81;21086;-61
2022/01/15 06:02:39;;;;;;;3.65;0.95;;;;;;;2.13;72.71;100001.18;1773046;81;21555;-63
2022/01/15 06:05:09;;;;;;;5.60;1.00;;;;;;;2.15;72.76;100009.80;1772813;81;21132;-63
2022/01/15 06:07:38;;;;;;;5.40;1.07;;;;;;;2.18;72.66;100007.16;1772856;81;21255;-64
2022/01/15 06:10:07;;;;;;;2.65;0.82;;;;;;;2.21;72.45;100009.69;1772862;81;21062;-63
2022/01/15 06:12:42;;;;;;;5.78;1.10;;;;;;;2.23;72.55;100005.36;1772930;81;21080;-62
2022/01/15 06:15:07;;;;;;;7.83;1.27;;;;;;;2.24;72.54;100001.86;1772396;80;21066;-61
2022/01/15 06:17:36;;;;;;;3.50;0.68;;;;;;;2.24;72.32;100011.40;1772937;81;21058;-62
2022/01/15 06:20:05;;;;;;;4.20;0.55;;;;;;;2.24;72.44;100016.14;1772813;81;21095;-60
2022/01/15 06:22:34;;;;;;;3.52;0.68;;;;;;;2.27;72.29;100012.20;1772968;81;21101;-61
2022/01/15 06:25:05;;;;;;;9.90;1.05;;;;;;;2.28;72.34;100020.40;1772836;81;21596;-61
2022/01/15 06:27:34;;;;;;;1.65;0.95;;;;;;;2.31;72.34;100024.26;1772757;81;21094;-62
2022/01/15 06:30:04;;;;;;;9.10;1.27;;;;;;;2.37;72.34;100012.05;1772862;81;21637;-61
2022/01/15 06:32:36;;;;;;;5.28;0.90;;;;;;;2.44;72.23;100008.47;1772653;81;21102;-61
2022/01/15 06:35:11;;;;;;;5.50;1.40;;;;;;;2.50;72.21;100009.66;1772679;81;21135;-62
2022/01/15 06:37:39;;;;;;;3.77;0.75;;;;;;;2.51;72.12;100015.28;1772892;81;21128;-62
2022/01/15 06:40:09;;;;;;;3.55;0.78;;;;;;;2.52;72.08;100020.88;1772824;81;21666;-62
2022/01/15 06:42:38;;;;;;;2.90;0.80;;;;;;;2.49;71.68;100028.71;1772885;81;21058;-61
2022/01/15 06:45:08;;;;;;;3.35;0.62;;;;;;;2.49;71.85;100030.02;1772729;81;21652;-62
2022/01/15 06:47:37;;;;;;;3.70;0.85;;;;;;;2.48;71.66;100035.66;1772817;81;21561;-62
2022/01/15 06:50:08;;;;;;;6.90;1.42;;;;;;;2.47;71.62;100034.38;1772924;81;21124;-63
2022/01/15 06:52:38;;;;;;;3.75;0.95;;;;;;;2.45;71.85;100046.12;1772929;81;21106;-63
2022/01/15 06:55:09;;;;;;;8.50;3.62;;;;;;;2.46;71.94;100048.27;1772905;81;21094;-62
2022/01/15 06:57:37;;;;;;;3.90;1.17;;;;;;;2.51;71.86;100051.66;1772821;81;21165;-60
2022/01/15 07:00:08;;;;;;;1.82;0.60;;;;;;;2.59;71.66;100060.17;1772927;81;21461;-67
2022/01/15 07:02:37;;;;;;;2.62;0.82;;;;;;;2.64;71.60;100064.85;1772952;81;21132;-65
2022/01/15 07:05:07;;;;;;;1.72;0.80;;;;;;;2.68;71.64;100060.46;1772885;81;21086;-65
2022/01/15 07:07:43;;;;;;;3.15;0.98;;;;;;;2.73;71.44;100061.66;1773030;80;21094;-65
2022/01/15 07:10:08;;;;;;;5.47;1.15;;;;;;;2.73;71.02;100066.86;1772252;81;21149;-65
2022/01/15 07:12:37;;;;;;;25.97;7.75;;;;;;;2.70;71.04;100068.63;1772946;80;21062;-62
2022/01/15 07:15:06;;;;;;;4.30;1.22;;;;;;;2.72;71.22;100066.47;1773098;81;21058;-61
2022/01/15 07:17:38;;;;;;;1.45;0.90;;;;;;;2.74;70.85;100059.05;1772713;80;21098;-61
2022/01/15 07:20:07;;;;;;;11.95;1.25;;;;;;;2.77;70.94;100067.25;1771063;81;21165;-61
2022/01/15 07:22:36;;;;;;;4.62;0.82;;;;;;;2.82;70.89;100070.59;1772798;81;21093;-61
2022/01/15 07:25:05;;;;;;;3.83;0.68;;;;;;;2.92;71.07;100072.61;1772788;80;21078;-62
2022/01/15 07:27:34;;;;;;;2.02;0.55;;;;;;;3.01;70.94;100072.44;1772927;81;21117;-64
2022/01/15 07:30:05;;;;;;;4.75;1.10;;;;;;;3.04;70.97;100073.25;1772809;81;21138;-63
2022/01/15 07:32:33;;;;;;;6.72;1.30;;;;;;;3.06;70.83;100075.37;1772871;81;21105;-65
2022/01/15 07:35:02;;;;;;;2.05;0.82;;;;;;;3.05;70.56;100075.39;1772709;81;21071;-64
2022/01/15 07:37:32;;;;;;;3.87;0.68;;;;;;;2.99;70.60;100091.97;1772787;81;21082;-61
2022/01/15 07:42:50;;;;;;;3.67;0.82;;;;;;;2.96;70.30;100088.56;1837277;78;21161;-61
2022/01/15 07:45:19;;;;;;;3.17;1.00;;;;;;;2.96;70.45;100093.31;1837145;78;21135;-60
2022/01/15 07:47:48;;;;;;;6.05;0.90;;;;;;;2.95;70.40;100090.73;1832323;78;21065;-59
2022/01/15 07:50:23;;;;;;;1.75;0.50;;;;;;;2.98;70.42;100095.44;1820202;79;21077;-59
2022/01/15 07:52:50;;;;;;;2.40;0.80;;;;;;;2.96;70.19;100100.27;1819911;78;21022;-63
2022/01/15 07:55:19;;;;;;;3.35;1.32;;;;;;;2.97;70.39;100099.36;1820076;79;21519;-61
2022/01/15 07:57:47;;;;;;;2.12;1.00;;;;;;;3.00;70.42;100105.83;1820113;79;21476;-64
2022/01/15 08:00:19;;;;;;;4.78;0.95;;;;;;;3.01;70.24;100103.66;1820141;79;21078;-61
2022/01/15 08:02:47;;;;;;;2.50;0.90;;;;;;;3.02;70.36;100097.09;1820391;79;21570;-59
2022/01/15 08:05:16;;;;;;;1.40;0.60;;;;;;;3.06;70.21;100100.08;1820130;79;21504;-59
2022/01/15 08:07:44;;;;;;;3.72;0.80;;;;;;;3.19;70.26;100102.43;1820790;78;21538;-63
2022/01/15 08:10:13;;;;;;;6.25;1.35;;;;;;;3.31;70.18;100106.56;1813674;78;21786;-62
2022/01/15 08:12:48;;;;;;;3.33;1.15;;;;;;;3.44;69.83;100101.52;1825653;78;21043;-63
2022/01/15 08:15:18;;;;;;;4.47;1.00;;;;;;;3.59;69.97;100106.86;1837274;78;21165;-62
2022/01/15 08:17:47;;;;;;;3.87;0.90;;;;;;;3.67;69.38;100104.94;1835873;77;21271;-60
2022/01/15 08:20:17;;;;;;;4.78;1.10;;;;;;;3.75;69.31;100108.72;1844101;77;21117;-60
2022/01/15 08:22:45;;;;;;;6.83;0.95;;;;;;;3.90;67.07;100103.62;1839754;78;21135;-61
2022/01/15 08:25:16;;;;;;;2.45;0.88;;;;;;;3.92;67.63;100107.05;1837227;78;21230;-60
2022/01/15 08:27:46;;;;;;;1.85;0.68;;;;;;;3.99;67.64;100106.02;1837191;78;21478;-60
2022/01/15 08:30:17;;;;;;;5.30;1.35;;;;;;;4.04;67.68;100112.00;1837315;78;21137;-59
2022/01/15 08:32:46;;;;;;;8.70;1.20;;;;;;;3.92;67.28;100116.16;1835158;78;21387;-59
2022/01/15 08:35:15;;;;;;;3.45;1.32;;;;;;;3.91;67.34;100115.73;1837210;78;21070;-61
2022/01/15 08:37:44;;;;;;;4.35;0.90;;;;;;;5.10;65.70;100117.22;1835759;78;21560;-60
2022/01/15 08:40:15;;;;;;;1.67;0.60;;;;;;;5.33;64.75;100114.02;1807273;79;21520;-60
2022/01/15 08:42:45;;;;;;;1.65;0.60;;;;;;;5.25;65.32;100102.91;1813714;78;21548;-57
2022/01/15 08:45:15;;;;;;;5.95;0.90;;;;;;;5.08;64.83;100120.33;1756391;82;21587;-58
2022/01/15 08:47:44;;;;;;;3.27;0.85;;;;;;;4.78;65.03;100123.29;1818389;78;21056;-59
2022/01/15 08:50:15;;;;;;;3.35;1.20;;;;;;;4.53;65.52;100135.60;1768010;81;21069;-58
2022/01/15 08:52:44;;;;;;;2.75;0.72;;;;;;;4.32;63.97;100124.40;1772799;81;21582;-59
2022/01/15 08:55:14;;;;;;;3.30;1.20;;;;;;;4.07;64.64;100134.05;1830927;78;21525;-57
2022/01/15 08:57:44;;;;;;;1.62;0.80;;;;;;;5.23;62.39;100134.72;1830952;78;21497;-58
2022/01/15 09:00:16;;;;;;;3.20;1.02;;;;;;;5.86;61.00;100136.03;1830842;78;21050;-58
2022/01/15 09:02:45;;;;;;;1.87;1.00;;;;;;;5.43;61.54;100132.03;1830874;78;21117;-58
2022/01/15 09:05:13;;;;;;;2.27;0.80;;;;;;;5.26;62.68;100133.34;1830933;78;21136;-58
2022/01/15 09:07:43;;;;;;;3.37;0.90;;;;;;;6.15;61.17;100129.50;1830924;78;21070;-58
2022/01/15 09:10:12;;;;;;;2.42;0.88;;;;;;;6.22;61.40;100131.95;1831007;78;21144;-58
2022/01/15 09:12:41;;;;;;;3.08;1.02;;;;;;;5.76;61.29;100134.98;1830980;78;21055;-59
2022/01/15 09:15:10;;;;;;;3.45;0.53;;;;;;;5.16;61.46;100137.08;1830852;78;21086;-58
2022/01/15 09:17:39;;;;;;;3.42;0.98;;;;;;;4.66;62.38;100148.36;1831015;78;21050;-58
2022/01/15 09:20:08;;;;;;;0.85;0.53;;;;;;;4.19;62.97;100153.78;1831087;78;21213;-58
2022/01/15 09:22:37;;;;;;;1.72;0.60;;;;;;;3.98;64.00;100155.09;1831159;78;21125;-59
2022/01/15 09:25:07;;;;;;;3.35;1.00;;;;;;;3.96;64.46;100150.36;1831253;78;21482;-58
2022/01/15 09:30:23;;;;;;;0.80;0.55;;;;;;;4.73;63.81;100139.03;1831057;78;21132;-58
2022/01/15 09:32:54;;;;;;;2.55;0.98;;;;;;;4.82;63.19;100146.63;1831075;78;21505;-58
2022/01/15 09:35:26;;;;;;;4.15;0.85;;;;;;;4.70;63.33;100142.16;1831081;78;21109;-58
2022/01/15 09:37:55;;;;;;;2.00;0.70;;;;;;;4.77;63.62;100154.16;1830959;78;21104;-58
2022/01/15 09:40:26;;;;;;;5.03;0.95;;;;;;;4.59;63.45;100158.94;1831185;78;21441;-59
2022/01/15 09:42:55;;;;;;;4.75;1.50;;;;;;;4.41;63.79;100155.47;1828610;78;21059;-58
2022/01/15 09:45:25;;;;;;;0.95;0.50;;;;;;;4.27;64.20;100166.64;1822782;79;21133;-58
2022/01/15 09:47:59;;;;;;;2.60;0.70;;;;;;;4.07;64.21;100182.25;1822762;79;21032;-58
2022/01/15 09:50:31;;;;;;;0.65;0.50;;;;;;;3.84;64.43;100180.14;1822590;79;21082;-58
2022/01/15 09:53:00;;;;;;;2.92;1.37;;;;;;;3.81;64.65;100176.28;1822719;79;21035;-60
2022/01/15 09:55:29;;;;;;;4.75;1.07;;;;;;;5.98;61.64;100159.23;1822718;78;21141;-60
2022/01/15 09:57:58;;;;;;;2.67;0.82;;;;;;;7.42;58.23;100169.88;1822682;79;21023;-60
2022/01/15 10:00:27;;;;;;;3.02;1.40;;;;;;;7.01;58.86;100162.54;1822718;77;21051;-60
2022/01/15 10:02:57;;;;;;;1.45;0.78;;;;;;;6.43;60.07;100163.95;1822621;79;21485;-60
2022/01/15 10:05:26;;;;;;;0.60;0.60;;;;;;;6.18;60.93;100169.09;1822662;79;21430;-60
2022/01/15 10:08:00;;;;;;;1.72;0.80;;;;;;;5.95;60.87;100164.50;1822680;79;21141;-60
2022/01/15 10:10:33;;;;;;;2.15;0.78;;;;;;;5.67;61.50;100178.81;1822679;79;21536;-60
2022/01/15 10:13:14;;;;;;;2.60;1.07;;;;;;;5.62;61.94;100180.23;1822851;79;21036;-60
2022/01/15 10:15:44;;;;;;;1.40;0.98;;;;;;;5.87;61.14;100179.56;1822798;79;21046;-60
2022/01/15 10:18:25;;;;;;;2.40;0.85;;;;;;;7.56;57.92;100186.41;1822643;79;21486;-60
2022/01/15 10:20:55;;;;;;;3.45;0.70;;;;;;;8.67;54.57;100179.22;1822750;79;21079;-65
2022/01/15 10:23:25;;;;;;;5.08;0.82;;;;;;;7.82;55.82;100185.47;1822679;79;21051;-61
2022/01/15 10:26:18;;;;;;;4.58;0.85;;;;;;;6.97;57.05;100185.77;1822612;79;21470;-61
2022/01/15 10:28:52;;;;;;;5.25;0.70;;;;;;;6.41;58.43;100192.38;1807744;78;21576;-61
2022/01/15 10:31:29;;;;;;;1.32;0.70;;;;;;;5.78;58.70;100180.67;1822907;79;21023;-61
2022/01/15 10:34:01;;;;;;;4.12;1.65;;;;;;;5.32;59.91;100194.97;1822761;79;21047;-62
2022/01/15 10:36:34;;;;;;;3.80;1.02;;;;;;;5.05;60.25;100199.14;1822672;77;21067;-61
2022/01/15 10:39:20;;;;;;;3.15;0.70;;;;;;;4.85;60.76;100205.72;1822965;79;21023;-61
2022/01/15 10:41:49;;;;;;;3.00;0.85;;;;;;;5.08;60.78;100201.68;1822636;79;21156;-62
2022/01/15 10:44:36;;;;;;;1.57;0.82;;;;;;;5.38;60.11;100206.09;1822656;77;21489;-62
2022/01/15 10:47:09;;;;;;;2.47;0.57;;;;;;;5.35;60.06;100210.11;1822767;77;21051;-61
2022/01/15 10:49:39;;;;;;;3.80;0.85;;;;;;;5.25;59.84;100204.70;1822673;79;21117;-62
2022/01/15 10:52:19;;;;;;;4.03;1.17;;;;;;;5.41;60.15;100208.64;1822776;79;21051;-62
2022/01/15 10:55:07;;;;;;;0.68;0.57;;;;;;;6.65;57.90;100207.77;1822631;78;21051;-63
2022/01/15 10:57:38;;;;;;;3.35;1.02;;;;;;;9.20;52.78;100195.86;1822853;77;21450;-62
2022/01/15 11:00:19;;;;;;;5.42;1.05;;;;;;;11.14;49.00;100194.88;1822692;79;21553;-62
2022/01/15 11:02:51;;;;;;;3.05;1.07;;;;;;;12.18;47.71;100201.42;1822646;78;21070;-63
2022/01/15 11:05:34;;;;;;;1.70;0.70;;;;;;;12.72;47.16;100209.38;1822268;78;21095;-63
2022/01/15 11:08:12;;;;;;;1.82;0.80;;;;;;;12.91;46.61;100208.33;1822913;79;21027;-62
2022/01/15 11:10:43;;;;;;;4.60;0.70;;;;;;;12.50;45.52;100208.88;1822737;79;21055;-62
2022/01/15 11:13:15;;;;;;;2.45;0.90;;;;;;;11.59;46.89;100215.86;1822657;78;21489;-62
2022/01/15 11:15:45;;;;;;;2.30;0.68;;;;;;;12.44;45.70;100227.23;1822566;79;21027;-63
2022/01/15 11:18:23;;;;;;;4.67;0.95;;;;;;;12.86;44.38;100224.94;1822658;79;21113;-62
2022/01/15 11:20:55;;;;;;;6.03;1.17;;;;;;;13.23;44.03;100224.98;1822647;79;21047;-62
2022/01/15 11:23:25;;;;;;;4.70;0.85;;;;;;;13.00;44.12;100228.95;1822572;78;21070;-62
2022/01/15 11:25:57;;;;;;;3.45;0.78;;;;;;;11.22;47.42;100225.27;1822754;79;21113;-62
2022/01/15 11:28:29;;;;;;;1.85;0.70;;;;;;;9.89;49.98;100238.02;1822563;79;21434;-62
2022/01/15 11:31:04;;;;;;;2.42;0.45;;;;;;;8.55;51.11;100240.89;1822709;79;21454;-62
2022/01/15 11:33:35;;;;;;;5.55;1.00;;;;;;;7.68;52.55;100237.93;1822946;78;21031;-62
2022/01/15 11:36:06;;;;;;;2.40;0.57;;;;;;;7.10;53.90;100246.01;1822746;79;21043;-62
2022/01/15 11:38:43;;;;;;;7.72;1.00;;;;;;;6.58;54.81;100251.55;1822621;79;21047;-63
2022/01/15 11:41:30;;;;;;;3.65;1.15;;;;;;;6.22;55.19;100237.84;1822637;79;21119;-61
2022/01/15 11:44:00;;;;;;;1.77;0.65;;;;;;;5.80;55.97;100267.70;1826427;77;21125;-62
2022/01/15 11:46:32;;;;;;;2.47;0.40;;;;;;;5.44;56.06;100266.89;1854283;77;21086;-62
2022/01/15 11:49:26;;;;;;;3.30;0.68;;;;;;;5.18;56.59;100277.11;1854225;77;21446;-62
2022/01/15 11:51:55;;;;;;;;;;;;;;;4.97;57.11;100282.83;1857082;77;21101;-62
2022/01/15 11:54:24;;;;;;;0.47;0.47;;;;;;;4.89;57.14;100276.48;1854282;77;20103;-62
2022/01/15 11:56:53;;;;;;;1.70;0.70;;;;;;;4.86;57.76;100286.12;1854368;77;21039;-62
2022/01/15 11:59:31;;;;;;;0.85;0.65;;;;;;;4.82;57.54;100288.80;1854361;77;21026;-62
2022/01/15 12:02:07;;;;;;;3.33;0.93;;;;;;;4.72;57.48;100292.95;1854442;77;21059;-61
2022/01/15 12:04:33;;;;;;;1.95;0.65;;;;;;;4.63;57.90;100297.48;1852967;77;21159;-62
2022/01/15 12:07:07;;;;;;;1.12;0.62;;;;;;;4.58;58.23;100301.94;1854273;77;21493;-62
2022/01/15 12:09:39;;;;;;;4.72;0.88;;;;;;;4.59;58.33;100303.66;1854242;77;21149;-61
2022/01/15 12:12:39;;;;;;;1.87;0.72;;;;;;;4.63;58.33;100310.52;1854152;77;21144;-61
2022/01/15 12:15:03;;;;;;;;;;;;;;;4.69;58.47;100315.20;1855818;77;21154;-61
2022/01/15 12:17:34;;;;;;;2.95;0.70;;;;;;;4.60;58.56;100326.22;1854253;77;20107;-61
2022/01/15 12:20:09;;;;;;;5.70;0.95;;;;;;;4.47;58.86;100335.20;1854261;77;21485;-61
2022/01/15 12:22:47;;;;;;;3.87;1.15;;;;;;;4.30;59.17;100333.36;1853366;75;21588;-61